sensor_id;sensor_type;location;lat;lon;timestamp;P1;durP1;ratioP1;P2;durP2;ratioP2
14760;SDS011;7472;45.396;5.272;2022-09-12T00:01:12;2.83;;;0.70;;
14760;SDS011;7472;45.396;5.272;2022-09-12T00:03:40;3.50;;;0.68;;
14760;SDS011;7472;45.396;5.272;2022-09-12T00:06:10;1.73;;;0.82;;
14760;SDS011;7472;45.396;5.272;2022-09-12T00:08:37;2.05;;;0.70;;
14760;SDS011;7472;45.396;5.272;2022-09-12T00:11:08;2.05;;;0.80;;
14760;SDS011;7472;45.396;5.272;2022-09-12T00:13:36;1.75;;;0.55;;
14760;SDS011;7472;45.396;5.272;2022-09-12T00:16:04;1.75;;;1.13;;
14760;SDS011;7472;45.396;5.272;2022-09-12T00:18:32;1.50;;;0.80;;
14760;SDS011;7472;45.396;5.272;2022-09-12T00:21:03;2.28;;;0.63;;
14760;SDS011;7472;45.396;5.272;2022-09-12T00:23:32;1.52;;;0.52;;
14760;SDS011;7472;45.396;5.272;2022-09-12T00:25:59;1.52;;;0.77;;
14760;SDS011;7472;45.396;5.272;2022-09-12T00:28:29;1.45;;;0.60;;
14760;SDS011;7472;45.396;5.272;2022-09-12T00:30:57;1.80;;;0.75;;
14760;SDS011;7472;45.396;5.272;2022-09-12T00:33:25;1.48;;;0.82;;
14760;SDS011;7472;45.396;5.272;2022-09-12T00:35:52;1.88;;;0.70;;
14760;SDS011;7472;45.396;5.272;2022-09-12T00:38:19;1.08;;;0.85;;
14760;SDS011;7472;45.396;5.272;2022-09-12T00:40:48;2.35;;;0.70;;
14760;SDS011;7472;45.396;5.272;2022-09-12T00:45:58;0.88;;;0.70;;
14760;SDS011;7472;45.396;5.272;2022-09-12T00:48:29;1.08;;;0.52;;
14760;SDS011;7472;45.396;5.272;2022-09-12T00:50:58;2.53;;;1.00;;
14760;SDS011;7472;45.396;5.272;2022-09-12T00:53:25;3.92;;;0.90;;
14760;SDS011;7472;45.396;5.272;2022-09-12T00:55:54;1.63;;;0.80;;
14760;SDS011;7472;45.396;5.272;2022-09-12T00:58:23;1.85;;;0.70;;
14760;SDS011;7472;45.396;5.272;2022-09-12T01:00:51;2.78;;;0.77;;
14760;SDS011;7472;45.396;5.272;2022-09-12T01:03:19;1.92;;;1.02;;
14760;SDS011;7472;45.396;5.272;2022-09-12T01:05:49;0.70;;;0.70;;
14760;SDS011;7472;45.396;5.272;2022-09-12T01:08:20;1.83;;;0.88;;
14760;SDS011;7472;45.396;5.272;2022-09-12T01:10:47;0.98;;;0.70;;
14760;SDS011;7472;45.396;5.272;2022-09-12T01:13:16;1.42;;;0.90;;
14760;SDS011;7472;45.396;5.272;2022-09-12T01:15:44;2.05;;;0.65;;
14760;SDS011;7472;45.396;5.272;2022-09-12T01:18:13;1.00;;;0.90;;
14760;SDS011;7472;45.396;5.272;2022-09-12T01:23:49;1.67;;;0.77;;
14760;SDS011;7472;45.396;5.272;2022-09-12T01:29:21;1.10;;;0.73;;
14760;SDS011;7472;45.396;5.272;2022-09-12T01:31:56;2.42;;;1.10;;
14760;SDS011;7472;45.396;5.272;2022-09-12T01:34:25;1.73;;;0.80;;
14760;SDS011;7472;45.396;5.272;2022-09-12T01:36:57;1.23;;;1.00;;
14760;SDS011;7472;45.396;5.272;2022-09-12T01:39:28;1.67;;;1.27;;
14760;SDS011;7472;45.396;5.272;2022-09-12T01:41:59;1.63;;;0.82;;
14760;SDS011;7472;45.396;5.272;2022-09-12T01:44:33;1.98;;;1.25;;
14760;SDS011;7472;45.396;5.272;2022-09-12T01:47:04;2.38;;;0.98;;
14760;SDS011;7472;45.396;5.272;2022-09-12T01:49:35;1.48;;;0.90;;
14760;SDS011;7472;45.396;5.272;2022-09-12T01:52:05;2.60;;;1.10;;
14760;SDS011;7472;45.396;5.272;2022-09-12T01:54:34;3.47;;;1.05;;
14760;SDS011;7472;45.396;5.272;2022-09-12T01:57:06;0.70;;;0.70;;
14760;SDS011;7472;45.396;5.272;2022-09-12T01:59:37;2.10;;;1.10;;
14760;SDS011;7472;45.396;5.272;2022-09-12T02:02:10;2.47;;;1.10;;
14760;SDS011;7472;45.396;5.272;2022-09-12T02:04:39;1.50;;;0.85;;
14760;SDS011;7472;45.396;5.272;2022-09-12T02:07:10;1.85;;;1.05;;
14760;SDS011;7472;45.396;5.272;2022-09-12T02:09:39;1.17;;;1.00;;
14760;SDS011;7472;45.396;5.272;2022-09-12T02:12:09;1.55;;;0.80;;
14760;SDS011;7472;45.396;5.272;2022-09-12T02:14:39;3.90;;;1.30;;
14760;SDS011;7472;45.396;5.272;2022-09-12T02:17:08;3.13;;;1.00;;
14760;SDS011;7472;45.396;5.272;2022-09-12T02:19:38;2.00;;;0.88;;
14760;SDS011;7472;45.396;5.272;2022-09-12T02:22:07;1.17;;;1.15;;
14760;SDS011;7472;45.396;5.272;2022-09-12T02:24:37;1.13;;;1.02;;
14760;SDS011;7472;45.396;5.272;2022-09-12T02:27:07;6.40;;;1.08;;
14760;SDS011;7472;45.396;5.272;2022-09-12T02:29:36;1.33;;;1.17;;
14760;SDS011;7472;45.396;5.272;2022-09-12T02:32:04;1.63;;;0.80;;
14760;SDS011;7472;45.396;5.272;2022-09-12T02:34:36;4.03;;;1.35;;
14760;SDS011;7472;45.396;5.272;2022-09-12T02:37:09;2.70;;;1.02;;
14760;SDS011;7472;45.396;5.272;2022-09-12T02:39:39;1.08;;;0.98;;
14760;SDS011;7472;45.396;5.272;2022-09-12T02:42:06;3.35;;;0.95;;
14760;SDS011;7472;45.396;5.272;2022-09-12T02:44:34;2.25;;;1.10;;
14760;SDS011;7472;45.396;5.272;2022-09-12T02:47:03;4.50;;;0.93;;
14760;SDS011;7472;45.396;5.272;2022-09-12T02:49:31;1.35;;;1.10;;
14760;SDS011;7472;45.396;5.272;2022-09-12T02:52:00;3.42;;;1.20;;
14760;SDS011;7472;45.396;5.272;2022-09-12T02:54:28;2.05;;;1.10;;
14760;SDS011;7472;45.396;5.272;2022-09-12T02:56:56;2.55;;;1.27;;
14760;SDS011;7472;45.396;5.272;2022-09-12T02:59:24;4.38;;;1.20;;
14760;SDS011;7472;45.396;5.272;2022-09-12T03:01:59;1.70;;;1.08;;
14760;SDS011;7472;45.396;5.272;2022-09-12T03:04:36;1.85;;;1.00;;
14760;SDS011;7472;45.396;5.272;2022-09-12T03:07:10;3.97;;;1.02;;
14760;SDS011;7472;45.396;5.272;2022-09-12T03:09:41;1.90;;;1.10;;
14760;SDS011;7472;45.396;5.272;2022-09-12T03:12:12;3.47;;;1.10;;
14760;SDS011;7472;45.396;5.272;2022-09-12T03:14:49;1.88;;;1.10;;
14760;SDS011;7472;45.396;5.272;2022-09-12T03:17:19;2.25;;;1.00;;
14760;SDS011;7472;45.396;5.272;2022-09-12T03:19:51;2.40;;;1.25;;
14760;SDS011;7472;45.396;5.272;2022-09-12T03:22:22;1.98;;;1.20;;
14760;SDS011;7472;45.396;5.272;2022-09-12T03:24:52;2.05;;;1.20;;
14760;SDS011;7472;45.396;5.272;2022-09-12T03:27:22;4.57;;;0.90;;
14760;SDS011;7472;45.396;5.272;2022-09-12T03:29:51;2.25;;;0.98;;
14760;SDS011;7472;45.396;5.272;2022-09-12T03:32:19;2.13;;;1.00;;
14760;SDS011;7472;45.396;5.272;2022-09-12T03:34:47;2.25;;;1.05;;
14760;SDS011;7472;45.396;5.272;2022-09-12T03:37:15;1.30;;;1.17;;
14760;SDS011;7472;45.396;5.272;2022-09-12T03:39:43;1.77;;;1.10;;
14760;SDS011;7472;45.396;5.272;2022-09-12T03:42:11;1.67;;;0.90;;
14760;SDS011;7472;45.396;5.272;2022-09-12T03:44:38;1.92;;;1.25;;
14760;SDS011;7472;45.396;5.272;2022-09-12T03:47:05;2.28;;;1.20;;
14760;SDS011;7472;45.396;5.272;2022-09-12T03:49:35;1.33;;;1.17;;
14760;SDS011;7472;45.396;5.272;2022-09-12T03:52:03;1.63;;;1.17;;
14760;SDS011;7472;45.396;5.272;2022-09-12T03:54:30;3.72;;;1.20;;
14760;SDS011;7472;45.396;5.272;2022-09-12T03:56:59;2.00;;;1.05;;
14760;SDS011;7472;45.396;5.272;2022-09-12T03:59:26;1.10;;;1.00;;
14760;SDS011;7472;45.396;5.272;2022-09-12T04:01:54;2.08;;;1.08;;
14760;SDS011;7472;45.396;5.272;2022-09-12T04:04:21;3.75;;;1.02;;
14760;SDS011;7472;45.396;5.272;2022-09-12T04:06:48;1.23;;;1.00;;
14760;SDS011;7472;45.396;5.272;2022-09-12T04:09:16;3.58;;;1.17;;
14760;SDS011;7472;45.396;5.272;2022-09-12T04:11:43;2.25;;;0.93;;
14760;SDS011;7472;45.396;5.272;2022-09-12T04:14:12;3.55;;;0.95;;
14760;SDS011;7472;45.396;5.272;2022-09-12T04:16:39;2.08;;;1.00;;
14760;SDS011;7472;45.396;5.272;2022-09-12T04:19:06;1.88;;;1.30;;
14760;SDS011;7472;45.396;5.272;2022-09-12T04:21:34;2.67;;;1.10;;
14760;SDS011;7472;45.396;5.272;2022-09-12T04:24:01;1.23;;;1.05;;
14760;SDS011;7472;45.396;5.272;2022-09-12T04:26:29;2.40;;;0.90;;
14760;SDS011;7472;45.396;5.272;2022-09-12T04:28:56;2.47;;;1.08;;
14760;SDS011;7472;45.396;5.272;2022-09-12T04:31:25;1.13;;;0.93;;
14760;SDS011;7472;45.396;5.272;2022-09-12T04:33:52;1.50;;;0.98;;
14760;SDS011;7472;45.396;5.272;2022-09-12T04:36:20;1.05;;;0.93;;
14760;SDS011;7472;45.396;5.272;2022-09-12T04:38:47;2.60;;;1.02;;
14760;SDS011;7472;45.396;5.272;2022-09-12T04:41:15;1.15;;;1.10;;
14760;SDS011;7472;45.396;5.272;2022-09-12T04:43:43;2.95;;;0.85;;
14760;SDS011;7472;45.396;5.272;2022-09-12T04:46:12;1.38;;;0.77;;
14760;SDS011;7472;45.396;5.272;2022-09-12T04:48:42;2.80;;;1.38;;
14760;SDS011;7472;45.396;5.272;2022-09-12T04:51:10;1.00;;;0.90;;
14760;SDS011;7472;45.396;5.272;2022-09-12T04:53:38;0.80;;;0.80;;
14760;SDS011;7472;45.396;5.272;2022-09-12T04:56:06;2.85;;;0.93;;
14760;SDS011;7472;45.396;5.272;2022-09-12T04:58:33;1.35;;;0.80;;
14760;SDS011;7472;45.396;5.272;2022-09-12T05:01:04;3.72;;;1.02;;
14760;SDS011;7472;45.396;5.272;2022-09-12T05:03:32;1.73;;;0.93;;
14760;SDS011;7472;45.396;5.272;2022-09-12T05:06:02;3.33;;;1.10;;
14760;SDS011;7472;45.396;5.272;2022-09-12T05:08:29;2.95;;;1.15;;
14760;SDS011;7472;45.396;5.272;2022-09-12T05:11:00;3.15;;;1.17;;
14760;SDS011;7472;45.396;5.272;2022-09-12T05:13:27;3.88;;;0.88;;
14760;SDS011;7472;45.396;5.272;2022-09-12T05:15:55;1.85;;;1.17;;
14760;SDS011;7472;45.396;5.272;2022-09-12T05:18:23;3.00;;;0.90;;
14760;SDS011;7472;45.396;5.272;2022-09-12T05:20:50;1.00;;;0.90;;
14760;SDS011;7472;45.396;5.272;2022-09-12T05:23:19;2.05;;;1.17;;
14760;SDS011;7472;45.396;5.272;2022-09-12T05:25:47;1.33;;;0.70;;
14760;SDS011;7472;45.396;5.272;2022-09-12T05:28:15;1.63;;;1.05;;
14760;SDS011;7472;45.396;5.272;2022-09-12T05:30:42;1.98;;;1.00;;
14760;SDS011;7472;45.396;5.272;2022-09-12T05:33:10;2.90;;;1.30;;
14760;SDS011;7472;45.396;5.272;2022-09-12T05:35:37;1.50;;;1.30;;
14760;SDS011;7472;45.396;5.272;2022-09-12T05:38:04;1.00;;;0.90;;
14760;SDS011;7472;45.396;5.272;2022-09-12T05:40:33;1.38;;;0.95;;
14760;SDS011;7472;45.396;5.272;2022-09-12T05:43:01;2.55;;;0.88;;
14760;SDS011;7472;45.396;5.272;2022-09-12T05:45:29;1.30;;;1.10;;
14760;SDS011;7472;45.396;5.272;2022-09-12T05:47:56;0.77;;;0.75;;
14760;SDS011;7472;45.396;5.272;2022-09-12T05:50:24;0.98;;;0.80;;
14760;SDS011;7472;45.396;5.272;2022-09-12T05:52:51;1.98;;;0.70;;
14760;SDS011;7472;45.396;5.272;2022-09-12T05:55:19;2.45;;;1.08;;
14760;SDS011;7472;45.396;5.272;2022-09-12T05:57:48;1.48;;;0.98;;
14760;SDS011;7472;45.396;5.272;2022-09-12T06:00:16;2.90;;;0.90;;
14760;SDS011;7472;45.396;5.272;2022-09-12T06:02:44;2.40;;;0.85;;
14760;SDS011;7472;45.396;5.272;2022-09-12T06:05:17;2.80;;;0.80;;
14760;SDS011;7472;45.396;5.272;2022-09-12T06:07:44;0.82;;;0.82;;
14760;SDS011;7472;45.396;5.272;2022-09-12T06:10:12;3.05;;;1.05;;
14760;SDS011;7472;45.396;5.272;2022-09-12T06:12:40;2.85;;;0.80;;
14760;SDS011;7472;45.396;5.272;2022-09-12T06:15:09;1.48;;;0.70;;
14760;SDS011;7472;45.396;5.272;2022-09-12T06:17:38;2.55;;;1.00;;
14760;SDS011;7472;45.396;5.272;2022-09-12T06:20:06;3.03;;;0.90;;
14760;SDS011;7472;45.396;5.272;2022-09-12T06:22:33;2.47;;;0.90;;
14760;SDS011;7472;45.396;5.272;2022-09-12T06:25:01;1.23;;;0.70;;
14760;SDS011;7472;45.396;5.272;2022-09-12T06:27:29;2.10;;;1.52;;
14760;SDS011;7472;45.396;5.272;2022-09-12T06:29:56;2.90;;;1.35;;
14760;SDS011;7472;45.396;5.272;2022-09-12T06:32:25;2.08;;;1.02;;
14760;SDS011;7472;45.396;5.272;2022-09-12T06:34:55;4.97;;;1.17;;
14760;SDS011;7472;45.396;5.272;2022-09-12T06:37:23;2.70;;;0.90;;
14760;SDS011;7472;45.396;5.272;2022-09-12T06:39:50;7.82;;;1.42;;
14760;SDS011;7472;45.396;5.272;2022-09-12T06:42:17;1.75;;;0.90;;
14760;SDS011;7472;45.396;5.272;2022-09-12T06:44:45;2.20;;;0.80;;
14760;SDS011;7472;45.396;5.272;2022-09-12T06:47:12;2.53;;;1.20;;
14760;SDS011;7472;45.396;5.272;2022-09-12T06:49:41;2.33;;;0.75;;
14760;SDS011;7472;45.396;5.272;2022-09-12T06:52:08;1.33;;;1.08;;
14760;SDS011;7472;45.396;5.272;2022-09-12T06:54:36;1.27;;;0.88;;
14760;SDS011;7472;45.396;5.272;2022-09-12T06:57:03;1.83;;;0.90;;
14760;SDS011;7472;45.396;5.272;2022-09-12T06:59:31;3.45;;;1.10;;
14760;SDS011;7472;45.396;5.272;2022-09-12T07:01:58;1.08;;;0.73;;
14760;SDS011;7472;45.396;5.272;2022-09-12T07:04:26;1.15;;;0.75;;
14760;SDS011;7472;45.396;5.272;2022-09-12T07:06:55;2.78;;;1.05;;
14760;SDS011;7472;45.396;5.272;2022-09-12T07:09:22;4.93;;;0.90;;
14760;SDS011;7472;45.396;5.272;2022-09-12T07:11:50;4.22;;;0.95;;
14760;SDS011;7472;45.396;5.272;2022-09-12T07:14:17;3.80;;;0.95;;
14760;SDS011;7472;45.396;5.272;2022-09-12T07:16:45;1.10;;;0.70;;
14760;SDS011;7472;45.396;5.272;2022-09-12T07:19:12;2.45;;;1.00;;
14760;SDS011;7472;45.396;5.272;2022-09-12T07:21:39;2.67;;;0.63;;
14760;SDS011;7472;45.396;5.272;2022-09-12T07:24:08;4.05;;;0.85;;
14760;SDS011;7472;45.396;5.272;2022-09-12T07:26:36;1.23;;;0.60;;
14760;SDS011;7472;45.396;5.272;2022-09-12T07:29:04;5.07;;;0.90;;
14760;SDS011;7472;45.396;5.272;2022-09-12T07:31:31;0.85;;;0.60;;
14760;SDS011;7472;45.396;5.272;2022-09-12T07:33:58;1.77;;;1.02;;
14760;SDS011;7472;45.396;5.272;2022-09-12T07:36:26;1.75;;;0.85;;
14760;SDS011;7472;45.396;5.272;2022-09-12T07:38:53;1.95;;;1.00;;
14760;SDS011;7472;45.396;5.272;2022-09-12T07:41:23;0.70;;;0.70;;
14760;SDS011;7472;45.396;5.272;2022-09-12T07:43:50;0.77;;;0.77;;
14760;SDS011;7472;45.396;5.272;2022-09-12T07:46:18;2.40;;;1.02;;
14760;SDS011;7472;45.396;5.272;2022-09-12T07:48:48;1.85;;;0.73;;
14760;SDS011;7472;45.396;5.272;2022-09-12T07:51:16;2.70;;;0.80;;
14760;SDS011;7472;45.396;5.272;2022-09-12T07:53:44;2.67;;;0.70;;
14760;SDS011;7472;45.396;5.272;2022-09-12T07:56:11;1.08;;;0.80;;
14760;SDS011;7472;45.396;5.272;2022-09-12T07:58:41;1.30;;;0.70;;
14760;SDS011;7472;45.396;5.272;2022-09-12T08:01:09;2.03;;;0.80;;
14760;SDS011;7472;45.396;5.272;2022-09-12T08:03:38;1.20;;;0.50;;
14760;SDS011;7472;45.396;5.272;2022-09-12T08:06:06;2.22;;;0.70;;
14760;SDS011;7472;45.396;5.272;2022-09-12T08:08:34;1.85;;;0.85;;
14760;SDS011;7472;45.396;5.272;2022-09-12T08:11:03;2.40;;;0.90;;
14760;SDS011;7472;45.396;5.272;2022-09-12T08:13:31;6.30;;;1.08;;
14760;SDS011;7472;45.396;5.272;2022-09-12T08:16:01;2.70;;;0.90;;
14760;SDS011;7472;45.396;5.272;2022-09-12T08:18:29;4.28;;;0.80;;
14760;SDS011;7472;45.396;5.272;2022-09-12T08:20:57;3.15;;;0.85;;
14760;SDS011;7472;45.396;5.272;2022-09-12T08:23:25;5.45;;;0.75;;
14760;SDS011;7472;45.396;5.272;2022-09-12T08:25:54;3.08;;;1.05;;
14760;SDS011;7472;45.396;5.272;2022-09-12T08:28:22;0.60;;;0.60;;
14760;SDS011;7472;45.396;5.272;2022-09-12T08:30:49;6.63;;;1.20;;
14760;SDS011;7472;45.396;5.272;2022-09-12T08:33:18;3.88;;;1.02;;
14760;SDS011;7472;45.396;5.272;2022-09-12T08:35:46;4.00;;;0.90;;
14760;SDS011;7472;45.396;5.272;2022-09-12T08:38:13;2.65;;;0.75;;
14760;SDS011;7472;45.396;5.272;2022-09-12T08:40:43;3.05;;;0.70;;
14760;SDS011;7472;45.396;5.272;2022-09-12T08:43:19;1.52;;;0.80;;
14760;SDS011;7472;45.396;5.272;2022-09-12T08:45:52;1.38;;;0.80;;
14760;SDS011;7472;45.396;5.272;2022-09-12T08:48:22;3.55;;;0.73;;
14760;SDS011;7472;45.396;5.272;2022-09-12T08:50:49;1.88;;;0.70;;
14760;SDS011;7472;45.396;5.272;2022-09-12T08:53:17;2.10;;;0.70;;
14760;SDS011;7472;45.396;5.272;2022-09-12T08:55:49;2.25;;;0.80;;
14760;SDS011;7472;45.396;5.272;2022-09-12T08:58:19;1.15;;;0.90;;
14760;SDS011;7472;45.396;5.272;2022-09-12T09:00:49;1.00;;;0.80;;
14760;SDS011;7472;45.396;5.272;2022-09-12T09:03:34;1.77;;;0.73;;
14760;SDS011;7472;45.396;5.272;2022-09-12T09:06:11;2.05;;;0.70;;
14760;SDS011;7472;45.396;5.272;2022-09-12T09:08:46;1.30;;;0.90;;
14760;SDS011;7472;45.396;5.272;2022-09-12T09:11:25;1.02;;;0.63;;
14760;SDS011;7472;45.396;5.272;2022-09-12T09:13:59;1.27;;;0.70;;
14760;SDS011;7472;45.396;5.272;2022-09-12T09:16:46;3.58;;;0.50;;
14760;SDS011;7472;45.396;5.272;2022-09-12T09:19:17;1.95;;;0.70;;
14760;SDS011;7472;45.396;5.272;2022-09-12T09:21:47;2.08;;;0.70;;
14760;SDS011;7472;45.396;5.272;2022-09-12T09:24:17;2.25;;;0.40;;
14760;SDS011;7472;45.396;5.272;2022-09-12T09:26:47;0.85;;;0.47;;
14760;SDS011;7472;45.396;5.272;2022-09-12T09:29:16;1.95;;;0.85;;
14760;SDS011;7472;45.396;5.272;2022-09-12T09:31:45;1.73;;;0.52;;
14760;SDS011;7472;45.396;5.272;2022-09-12T09:34:14;4.00;;;0.80;;
14760;SDS011;7472;45.396;5.272;2022-09-12T09:36:45;1.75;;;0.70;;
14760;SDS011;7472;45.396;5.272;2022-09-12T09:39:16;1.23;;;0.70;;
14760;SDS011;7472;45.396;5.272;2022-09-12T09:41:48;2.35;;;0.50;;
14760;SDS011;7472;45.396;5.272;2022-09-12T09:44:19;2.05;;;0.90;;
14760;SDS011;7472;45.396;5.272;2022-09-12T09:46:46;1.85;;;0.57;;
14760;SDS011;7472;45.396;5.272;2022-09-12T09:49:14;2.17;;;0.98;;
14760;SDS011;7472;45.396;5.272;2022-09-12T09:51:44;2.45;;;0.63;;
14760;SDS011;7472;45.396;5.272;2022-09-12T09:54:14;4.00;;;0.70;;
14760;SDS011;7472;45.396;5.272;2022-09-12T09:56:43;5.80;;;1.13;;
14760;SDS011;7472;45.396;5.272;2022-09-12T09:59:11;3.28;;;0.80;;
14760;SDS011;7472;45.396;5.272;2022-09-12T10:01:42;2.20;;;0.77;;
14760;SDS011;7472;45.396;5.272;2022-09-12T10:04:15;1.52;;;0.57;;
14760;SDS011;7472;45.396;5.272;2022-09-12T10:06:45;4.13;;;0.93;;
14760;SDS011;7472;45.396;5.272;2022-09-12T10:09:20;2.45;;;0.70;;
14760;SDS011;7472;45.396;5.272;2022-09-12T10:11:48;4.72;;;0.90;;
14760;SDS011;7472;45.396;5.272;2022-09-12T10:14:26;7.20;;;1.10;;
14760;SDS011;7472;45.396;5.272;2022-09-12T10:16:54;5.93;;;0.70;;
14760;SDS011;7472;45.396;5.272;2022-09-12T10:19:23;2.25;;;0.93;;
14760;SDS011;7472;45.396;5.272;2022-09-12T10:22:00;9.65;;;1.10;;
14760;SDS011;7472;45.396;5.272;2022-09-12T10:24:29;1.83;;;0.65;;
14760;SDS011;7472;45.396;5.272;2022-09-12T10:27:04;2.25;;;0.60;;
14760;SDS011;7472;45.396;5.272;2022-09-12T10:29:33;5.63;;;0.45;;
14760;SDS011;7472;45.396;5.272;2022-09-12T10:32:02;1.58;;;0.47;;
14760;SDS011;7472;45.396;5.272;2022-09-12T10:34:33;1.85;;;0.77;;
14760;SDS011;7472;45.396;5.272;2022-09-12T10:37:03;1.48;;;0.80;;
14760;SDS011;7472;45.396;5.272;2022-09-12T10:39:31;1.40;;;0.65;;
14760;SDS011;7472;45.396;5.272;2022-09-12T10:42:00;2.55;;;0.70;;
14760;SDS011;7472;45.396;5.272;2022-09-12T10:44:28;1.65;;;0.68;;
14760;SDS011;7472;45.396;5.272;2022-09-12T10:46:56;1.88;;;0.50;;
14760;SDS011;7472;45.396;5.272;2022-09-12T10:49:25;0.65;;;0.40;;
14760;SDS011;7472;45.396;5.272;2022-09-12T10:51:53;1.55;;;0.65;;
14760;SDS011;7472;45.396;5.272;2022-09-12T10:54:25;1.95;;;0.50;;
14760;SDS011;7472;45.396;5.272;2022-09-12T10:57:06;0.90;;;0.35;;
14760;SDS011;7472;45.396;5.272;2022-09-12T10:59:40;0.65;;;0.40;;
14760;SDS011;7472;45.396;5.272;2022-09-12T11:02:13;1.98;;;0.65;;
14760;SDS011;7472;45.396;5.272;2022-09-12T11:04:44;3.75;;;0.30;;
14760;SDS011;7472;45.396;5.272;2022-09-12T11:10:14;3.17;;;0.55;;
14760;SDS011;7472;45.396;5.272;2022-09-12T11:12:45;2.08;;;0.43;;
14760;SDS011;7472;45.396;5.272;2022-09-12T11:15:20;1.40;;;0.47;;
14760;SDS011;7472;45.396;5.272;2022-09-12T11:17:53;1.10;;;0.50;;
14760;SDS011;7472;45.396;5.272;2022-09-12T11:23:22;1.30;;;0.60;;
14760;SDS011;7472;45.396;5.272;2022-09-12T11:25:55;0.80;;;0.40;;
14760;SDS011;7472;45.396;5.272;2022-09-12T11:28:30;2.67;;;0.50;;
14760;SDS011;7472;45.396;5.272;2022-09-12T11:31:07;0.90;;;0.40;;
14760;SDS011;7472;45.396;5.272;2022-09-12T11:33:40;2.35;;;0.38;;
14760;SDS011;7472;45.396;5.272;2022-09-12T11:36:11;1.08;;;0.60;;
14760;SDS011;7472;45.396;5.272;2022-09-12T11:38:51;1.98;;;0.60;;
14760;SDS011;7472;45.396;5.272;2022-09-12T11:41:25;1.30;;;0.70;;
14760;SDS011;7472;45.396;5.272;2022-09-12T11:43:56;1.00;;;0.43;;
14760;SDS011;7472;45.396;5.272;2022-09-12T11:46:26;2.47;;;0.50;;
14760;SDS011;7472;45.396;5.272;2022-09-12T11:48:56;3.72;;;0.43;;
14760;SDS011;7472;45.396;5.272;2022-09-12T11:51:26;0.70;;;0.40;;
14760;SDS011;7472;45.396;5.272;2022-09-12T11:54:01;0.90;;;0.77;;
14760;SDS011;7472;45.396;5.272;2022-09-12T11:56:32;1.35;;;0.50;;
14760;SDS011;7472;45.396;5.272;2022-09-12T11:59:02;2.30;;;0.45;;
14760;SDS011;7472;45.396;5.272;2022-09-12T12:01:31;3.50;;;0.63;;
14760;SDS011;7472;45.396;5.272;2022-09-12T12:04:02;1.73;;;0.40;;
14760;SDS011;7472;45.396;5.272;2022-09-12T12:06:34;0.90;;;0.40;;
14760;SDS011;7472;45.396;5.272;2022-09-12T12:09:03;0.80;;;0.45;;
14760;SDS011;7472;45.396;5.272;2022-09-12T12:11:33;2.70;;;0.32;;
14760;SDS011;7472;45.396;5.272;2022-09-12T12:14:01;1.60;;;0.50;;
14760;SDS011;7472;45.396;5.272;2022-09-12T12:16:30;1.27;;;0.43;;
14760;SDS011;7472;45.396;5.272;2022-09-12T12:18:58;1.40;;;0.40;;
14760;SDS011;7472;45.396;5.272;2022-09-12T12:21:34;1.23;;;0.45;;
14760;SDS011;7472;45.396;5.272;2022-09-12T12:24:08;1.80;;;0.80;;
14760;SDS011;7472;45.396;5.272;2022-09-12T12:26:44;1.10;;;0.35;;
14760;SDS011;7472;45.396;5.272;2022-09-12T12:29:12;1.13;;;0.55;;
14760;SDS011;7472;45.396;5.272;2022-09-12T12:34:38;2.83;;;0.60;;
14760;SDS011;7472;45.396;5.272;2022-09-12T12:48:23;4.18;;;0.70;;
14760;SDS011;7472;45.396;5.272;2022-09-12T12:50:51;2.33;;;0.50;;
14760;SDS011;7472;45.396;5.272;2022-09-12T12:53:20;1.05;;;0.20;;
14760;SDS011;7472;45.396;5.272;2022-09-12T12:55:49;2.88;;;0.57;;
14760;SDS011;7472;45.396;5.272;2022-09-12T12:58:26;0.70;;;0.50;;
14760;SDS011;7472;45.396;5.272;2022-09-12T13:01:08;3.03;;;0.95;;
14760;SDS011;7472;45.396;5.272;2022-09-12T13:03:38;2.90;;;0.50;;
14760;SDS011;7472;45.396;5.272;2022-09-12T13:06:07;1.33;;;0.43;;
14760;SDS011;7472;45.396;5.272;2022-09-12T13:08:37;0.50;;;0.50;;
14760;SDS011;7472;45.396;5.272;2022-09-12T13:11:06;2.75;;;0.30;;
14760;SDS011;7472;45.396;5.272;2022-09-12T13:13:35;0.68;;;0.30;;
14760;SDS011;7472;45.396;5.272;2022-09-12T13:16:04;4.22;;;0.35;;
14760;SDS011;7472;45.396;5.272;2022-09-12T13:18:33;2.63;;;0.30;;
14760;SDS011;7472;45.396;5.272;2022-09-12T13:21:08;0.80;;;0.30;;
14760;SDS011;7472;45.396;5.272;2022-09-12T13:23:36;2.95;;;0.50;;
14760;SDS011;7472;45.396;5.272;2022-09-12T13:26:08;3.50;;;0.45;;
14760;SDS011;7472;45.396;5.272;2022-09-12T13:28:36;0.55;;;0.35;;
14760;SDS011;7472;45.396;5.272;2022-09-12T13:31:06;0.90;;;0.30;;
14760;SDS011;7472;45.396;5.272;2022-09-12T13:33:38;3.53;;;0.40;;
14760;SDS011;7472;45.396;5.272;2022-09-12T13:36:19;1.80;;;0.50;;
14760;SDS011;7472;45.396;5.272;2022-09-12T13:38:57;1.17;;;0.50;;
14760;SDS011;7472;45.396;5.272;2022-09-12T13:41:36;1.27;;;0.32;;
14760;SDS011;7472;45.396;5.272;2022-09-12T13:44:07;0.55;;;0.30;;
14760;SDS011;7472;45.396;5.272;2022-09-12T13:46:35;0.90;;;0.40;;
14760;SDS011;7472;45.396;5.272;2022-09-12T13:49:04;1.08;;;0.40;;
14760;SDS011;7472;45.396;5.272;2022-09-12T13:51:34;2.85;;;0.40;;
14760;SDS011;7472;45.396;5.272;2022-09-12T13:54:02;1.33;;;0.40;;
14760;SDS011;7472;45.396;5.272;2022-09-12T13:56:31;1.08;;;0.63;;
14760;SDS011;7472;45.396;5.272;2022-09-12T13:58:59;1.45;;;0.40;;
14760;SDS011;7472;45.396;5.272;2022-09-12T14:01:36;0.90;;;0.50;;
14760;SDS011;7472;45.396;5.272;2022-09-12T14:04:09;1.50;;;0.60;;
14760;SDS011;7472;45.396;5.272;2022-09-12T14:06:59;2.85;;;0.40;;
14760;SDS011;7472;45.396;5.272;2022-09-12T14:09:29;0.65;;;0.22;;
14760;SDS011;7472;45.396;5.272;2022-09-12T14:11:56;0.40;;;0.30;;
14760;SDS011;7472;45.396;5.272;2022-09-12T14:14:26;0.47;;;0.38;;
14760;SDS011;7472;45.396;5.272;2022-09-12T14:16:56;3.08;;;0.30;;
14760;SDS011;7472;45.396;5.272;2022-09-12T14:19:23;3.53;;;0.40;;
14760;SDS011;7472;45.396;5.272;2022-09-12T14:21:53;5.50;;;0.47;;
14760;SDS011;7472;45.396;5.272;2022-09-12T14:24:22;0.77;;;0.40;;
14760;SDS011;7472;45.396;5.272;2022-09-12T14:26:51;2.28;;;0.60;;
14760;SDS011;7472;45.396;5.272;2022-09-12T14:29:19;1.17;;;0.47;;
14760;SDS011;7472;45.396;5.272;2022-09-12T14:31:58;1.42;;;0.43;;
14760;SDS011;7472;45.396;5.272;2022-09-12T14:34:27;1.27;;;0.60;;
14760;SDS011;7472;45.396;5.272;2022-09-12T14:36:55;2.70;;;0.45;;
14760;SDS011;7472;45.396;5.272;2022-09-12T14:39:25;0.35;;;0.30;;
14760;SDS011;7472;45.396;5.272;2022-09-12T14:42:02;2.50;;;0.80;;
14760;SDS011;7472;45.396;5.272;2022-09-12T14:44:30;0.63;;;0.40;;
14760;SDS011;7472;45.396;5.272;2022-09-12T14:46:59;1.35;;;0.63;;
14760;SDS011;7472;45.396;5.272;2022-09-12T14:49:29;3.65;;;0.60;;
14760;SDS011;7472;45.396;5.272;2022-09-12T14:51:58;1.15;;;0.50;;
14760;SDS011;7472;45.396;5.272;2022-09-12T14:54:37;1.38;;;0.50;;
14760;SDS011;7472;45.396;5.272;2022-09-12T14:59:53;3.15;;;0.57;;
14760;SDS011;7472;45.396;5.272;2022-09-12T15:02:31;1.02;;;0.50;;
14760;SDS011;7472;45.396;5.272;2022-09-12T15:05:13;2.75;;;0.60;;
14760;SDS011;7472;45.396;5.272;2022-09-12T15:07:41;1.98;;;0.70;;
14760;SDS011;7472;45.396;5.272;2022-09-12T15:10:16;1.15;;;0.57;;
14760;SDS011;7472;45.396;5.272;2022-09-12T15:12:46;2.97;;;0.50;;
14760;SDS011;7472;45.396;5.272;2022-09-12T15:15:14;1.10;;;0.47;;
14760;SDS011;7472;45.396;5.272;2022-09-12T15:17:41;1.40;;;0.60;;
14760;SDS011;7472;45.396;5.272;2022-09-12T15:20:09;1.08;;;0.43;;
14760;SDS011;7472;45.396;5.272;2022-09-12T15:22:36;1.65;;;0.57;;
14760;SDS011;7472;45.396;5.272;2022-09-12T15:25:05;1.63;;;0.70;;
14760;SDS011;7472;45.396;5.272;2022-09-12T15:27:34;3.63;;;0.80;;
14760;SDS011;7472;45.396;5.272;2022-09-12T15:30:05;2.20;;;0.70;;
14760;SDS011;7472;45.396;5.272;2022-09-12T15:32:32;0.68;;;0.35;;
14760;SDS011;7472;45.396;5.272;2022-09-12T15:35:00;3.00;;;1.10;;
14760;SDS011;7472;45.396;5.272;2022-09-12T15:37:27;1.88;;;0.75;;
14760;SDS011;7472;45.396;5.272;2022-09-12T15:39:55;3.20;;;0.60;;
14760;SDS011;7472;45.396;5.272;2022-09-12T15:42:24;1.65;;;0.50;;
14760;SDS011;7472;45.396;5.272;2022-09-12T15:44:54;1.40;;;0.70;;
14760;SDS011;7472;45.396;5.272;2022-09-12T15:47:32;1.98;;;0.82;;